Time;durP1;ratioP1;P1;durP2;ratioP2;P2;SDS_P1;SDS_P2;PMS_P1;PMS_P2;Temp;Humidity;BMP_temperature;BMP_pressure;BME280_temperature;BME280_humidity;BME280_pressure;Samples;Min_cycle;Max_cycle;Signal;HPM_P1;HPM_P2
2022/12/17 13:06:54;;;;;;;63.95;38.90;;;2.00;99.90;;;;;;5071782;28;20481;-69
2022/12/17 13:09:25;;;;;;;69.80;40.65;;;2.00;99.90;;;;;;5071682;28;20040;-69
2022/12/17 13:11:59;;;;;;;67.70;39.58;;;2.00;99.90;;;;;;5071762;28;20040;-69
2022/12/17 13:14:29;;;;;;;68.70;39.58;;;1.90;99.90;;;;;;5072444;28;20503;-69
2022/12/17 13:17:13;;;;;;;69.88;39.40;;;1.90;99.90;;;;;;5071656;28;20532;-69
2022/12/17 13:19:41;;;;;;;69.47;41.08;;;1.70;99.90;;;;;;5071677;28;20145;-69
2022/12/17 13:22:15;;;;;;;72.00;40.53;;;1.50;99.90;;;;;;5071603;28;20443;-70
2022/12/17 13:24:43;;;;;;;66.15;40.10;;;1.40;99.90;;;;;;5071823;28;20099;-70
2022/12/17 13:27:30;;;;;;;67.88;38.58;;;1.30;99.90;;;;;;5071542;28;20417;-70
2022/12/17 13:29:56;;;;;;;64.97;38.53;;;1.50;99.90;;;;;;5071437;28;20448;-70
2022/12/17 13:32:29;;;;;;;62.38;38.95;;;1.40;99.90;;;;;;5071530;28;20044;-70
2022/12/17 13:35:24;;;;;;;;;;;1.40;99.90;;;;;;5072134;28;20036;-69
2022/12/17 13:37:54;;;;;;;66.53;38.83;;;1.60;99.90;;;;;;5002147;28;19924;-70
2022/12/17 13:40:38;;;;;;;64.10;38.95;;;1.70;99.90;;;;;;5071484;28;20041;-70
2022/12/17 13:43:03;;;;;;;67.40;37.55;;;1.70;99.90;;;;;;5071667;28;20049;-69
2022/12/17 13:45:34;;;;;;;67.95;39.13;;;1.70;99.90;;;;;;5071599;28;20401;-69
2022/12/17 13:48:00;;;;;;;66.40;38.25;;;1.90;99.90;;;;;;5074239;28;20052;-70
2022/12/17 13:50:28;;;;;;;65.00;39.20;;;1.70;99.90;;;;;;5075084;28;20039;-70
2022/12/17 13:52:54;;;;;;;64.68;38.63;;;1.50;99.90;;;;;;5075362;28;20070;-70
2022/12/17 13:55:25;;;;;;;65.72;39.00;;;1.40;99.90;;;;;;5075056;28;20073;-69
2022/12/17 13:57:52;;;;;;;65.53;39.72;;;1.30;99.90;;;;;;5075361;28;20040;-70
2022/12/17 14:00:28;;;;;;;66.18;38.95;;;1.10;99.90;;;;;;5074981;28;20037;-70
2022/12/17 14:02:54;;;;;;;70.25;39.40;;;1.00;99.90;;;;;;5075216;28;20075;-70
2022/12/17 14:05:32;;;;;;;66.55;39.13;;;0.90;99.90;;;;;;5076411;28;20134;-69
2022/12/17 14:08:00;;;;;;;63.85;37.45;;;0.90;99.90;;;;;;5074867;28;20041;-69
2022/12/17 14:10:26;;;;;;;66.65;38.65;;;0.80;99.90;;;;;;5074771;28;20090;-70
2022/12/17 14:13:04;;;;;;;70.25;39.15;;;0.80;99.90;;;;;;5074787;28;20040;-70
2022/12/17 14:15:30;;;;;;;68.30;39.97;;;1.00;99.90;;;;;;5074973;28;20435;-69
2022/12/17 14:17:58;;;;;;;68.32;38.08;;;1.10;99.90;;;;;;5074711;28;20111;-69
2022/12/17 14:20:34;;;;;;;68.63;39.33;;;1.20;99.90;;;;;;5074617;28;20052;-70
2022/12/17 14:23:10;;;;;;;70.63;38.13;;;1.20;99.90;;;;;;5074572;28;20053;-70
2022/12/17 14:25:37;;;;;;;69.90;39.03;;;1.20;99.90;;;;;;5074508;28;20040;-70
2022/12/17 14:28:18;;;;;;;72.50;39.05;;;1.10;99.90;;;;;;5074442;28;20047;-70
2022/12/17 14:30:44;;;;;;;66.13;38.60;;;0.90;99.90;;;;;;5074495;28;20055;-70
2022/12/17 14:33:32;;;;;;;65.53;37.28;;;0.70;99.90;;;;;;5076149;28;20119;-71
2022/12/17 14:36:04;;;;;;;63.85;37.03;;;0.60;99.90;;;;;;5074327;28;20068;-71
2022/12/17 14:38:30;;;;;;;68.30;37.80;;;0.50;99.90;;;;;;5074641;28;20043;-71
2022/12/17 14:42:24;;;;;;;67.07;37.92;;;0.40;99.90;;;;;;5074305;28;20044;-74
2022/12/17 14:43:58;;;;;;;67.53;38.40;;;0.30;99.90;;;;;;5074308;28;20052;-73
2022/12/17 14:46:24;;;;;;;65.85;37.70;;;0.20;99.90;;;;;;5074124;28;20051;-73
2022/12/17 14:49:02;;;;;;;73.35;39.22;;;0.10;99.90;;;;;;5073999;28;20041;-74
2022/12/17 14:51:40;;;;;;;70.97;36.13;;;0.10;99.90;;;;;;5074351;28;20037;-73
2022/12/17 14:54:18;;;;;;;65.45;36.90;;;0.00;99.90;;;;;;5057332;28;20041;-73
2022/12/17 14:56:46;;;;;;;67.95;36.47;;;-0.10;99.90;;;;;;5074246;28;20111;-73
2022/12/17 14:59:26;;;;;;;72.22;38.55;;;-0.10;99.90;;;;;;5073100;28;20044;-73
2022/12/17 15:01:53;;;;;;;74.88;37.58;;;-0.20;99.90;;;;;;5073888;28;20127;-72
2022/12/17 15:04:20;;;;;;;76.43;39.65;;;-0.20;99.90;;;;;;5073858;28;20500;-73
2022/12/17 15:06:45;;;;;;;74.00;38.80;;;-0.30;99.90;;;;;;5073710;28;20046;-73
2022/12/17 15:09:12;;;;;;;77.38;39.25;;;-0.30;99.90;;;;;;5073860;28;20040;-73
2022/12/17 15:11:37;;;;;;;73.65;39.33;;;-0.30;99.90;;;;;;5073805;28;20090;-73
2022/12/17 15:14:03;;;;;;;74.20;39.75;;;-0.40;99.90;;;;;;5057028;28;20033;-73
2022/12/17 15:16:29;;;;;;;73.95;36.88;;;-0.40;99.90;;;;;;5073485;28;20076;-73
2022/12/17 15:18:55;;;;;;;76.75;37.85;;;-0.40;99.90;;;;;;5073526;28;20098;-73
2022/12/17 15:21:21;;;;;;;81.70;39.42;;;-0.40;99.90;;;;;;5073778;28;20119;-73
2022/12/17 15:23:47;;;;;;;75.90;36.75;;;-0.40;99.90;;;;;;5057009;28;20037;-73
2022/12/17 15:26:14;;;;;;;76.57;36.90;;;-0.40;99.90;;;;;;5073937;28;20075;-72
2022/12/17 15:28:40;;;;;;;76.82;36.78;;;-0.50;99.90;;;;;;5073501;28;20041;-73
2022/12/17 15:31:08;;;;;;;77.63;35.38;;;-0.50;99.90;;;;;;5073308;28;20033;-74
2022/12/17 15:33:34;;;;;;;76.82;37.20;;;-0.60;99.90;;;;;;5073242;28;20029;-73
2022/12/17 15:35:59;;;;;;;81.28;37.75;;;-0.60;99.90;;;;;;5073147;28;20055;-73
2022/12/17 15:38:25;;;;;;;74.85;35.60;;;-0.70;99.90;;;;;;5056789;28;20040;-73
2022/12/17 15:40:50;;;;;;;78.00;35.05;;;-0.70;99.90;;;;;;5073161;28;20044;-73
2022/12/17 15:43:16;;;;;;;83.55;37.70;;;-0.70;99.90;;;;;;5056499;28;20037;-78
2022/12/17 15:45:49;;;;;;;76.40;35.55;;;-0.70;99.90;;;;;;5073293;28;20033;-73
2022/12/17 15:48:20;;;;;;;78.43;36.80;;;-0.70;99.90;;;;;;5073134;28;20037;-73
2022/12/17 15:50:46;;;;;;;84.85;38.17;;;-0.70;99.90;;;;;;5056566;28;20043;-73
2022/12/17 15:53:13;;;;;;;79.38;37.30;;;-0.80;99.90;;;;;;5056274;28;20037;-73
2022/12/17 15:55:39;;;;;;;82.53;37.42;;;-0.80;99.90;;;;;;5073176;28;20397;-73
2022/12/17 15:58:05;;;;;;;80.00;36.65;;;-0.80;99.90;;;;;;5073066;28;20448;-73
2022/12/17 16:00:31;;;;;;;80.57;37.58;;;-0.90;99.90;;;;;;5072670;28;20475;-73
2022/12/17 16:02:57;;;;;;;83.65;37.78;;;-0.80;99.90;;;;;;5072670;28;20040;-73
2022/12/17 16:05:23;;;;;;;81.13;37.17;;;-0.90;99.90;;;;;;5072547;28;20420;-73
2022/12/17 16:07:49;;;;;;;89.47;38.13;;;-0.90;99.90;;;;;;5072584;28;20040;-73
2022/12/17 16:10:15;;;;;;;83.35;36.92;;;-0.90;99.90;;;;;;5056032;28;20524;-73
2022/12/17 16:12:41;;;;;;;78.85;35.38;;;-0.90;99.90;;;;;;5072545;28;20037;-73
2022/12/17 16:15:08;;;;;;;77.68;35.75;;;-1.00;99.90;;;;;;5072623;28;20051;-72
2022/12/17 16:17:33;;;;;;;75.95;34.15;;;-1.00;99.90;;;;;;5072354;28;20039;-73
2022/12/17 16:19:59;;;;;;;82.57;35.47;;;-1.00;99.90;;;;;;5056289;28;20123;-73
2022/12/17 16:22:26;;;;;;;88.30;37.55;;;-1.00;99.90;;;;;;5072721;28;20040;-73
2022/12/17 16:24:51;;;;;;;91.22;37.08;;;-1.10;99.90;;;;;;5072196;28;20040;-73
2022/12/17 16:27:17;;;;;;;86.38;36.25;;;-1.10;99.90;;;;;;5072505;28;20028;-73
2022/12/17 16:29:44;;;;;;;93.18;37.60;;;-1.10;99.90;;;;;;5072251;28;20481;-73
2022/12/17 16:32:10;;;;;;;82.47;35.75;;;-1.20;99.90;;;;;;5055509;28;20044;-73
2022/12/17 16:34:35;;;;;;;82.28;34.10;;;-1.20;99.90;;;;;;5072304;28;20044;-73
2022/12/17 16:37:01;;;;;;;82.03;34.90;;;-1.20;99.90;;;;;;5055455;28;20043;-73
2022/12/17 16:39:27;;;;;;;90.57;37.53;;;-1.20;99.90;;;;;;5072325;28;20037;-73
2022/12/17 16:41:53;;;;;;;89.78;36.85;;;-1.20;99.90;;;;;;5072031;28;20037;-72
2022/12/17 16:44:18;;;;;;;86.88;37.55;;;-1.20;99.90;;;;;;5072013;28;20059;-73
2022/12/17 16:46:45;;;;;;;88.30;37.35;;;-1.20;99.90;;;;;;5071806;28;20039;-73
2022/12/17 16:49:22;;;;;;;79.75;35.22;;;-1.30;99.90;;;;;;5071967;28;20048;-73
2022/12/17 16:51:52;;;;;;;88.68;35.63;;;-1.30;99.90;;;;;;5071991;28;20485;-73
2022/12/17 16:54:21;;;;;;;93.15;36.20;;;-1.30;99.90;;;;;;5038977;28;20097;-73
2022/12/17 16:56:47;;;;;;;84.60;35.17;;;-1.30;99.90;;;;;;5071736;28;20050;-73
2022/12/17 16:59:14;;;;;;;85.93;35.90;;;-1.30;99.90;;;;;;5072118;28;20084;-72
2022/12/17 17:01:43;;;;;;;87.90;35.58;;;-1.30;99.90;;;;;;5072109;28;20052;-72
2022/12/17 17:04:10;;;;;;;79.85;35.28;;;-1.30;99.90;;;;;;5072060;28;20040;-72
2022/12/17 17:06:47;;;;;;;80.60;35.20;;;-1.20;99.90;;;;;;5071710;28;20044;-73
2022/12/17 17:09:14;;;;;;;82.85;35.42;;;-1.30;99.90;;;;;;5072049;28;20036;-73
2022/12/17 17:11:40;;;;;;;84.85;35.53;;;-1.30;99.90;;;;;;5071794;28;20075;-73
2022/12/17 17:14:06;;;;;;;85.47;36.38;;;-1.20;99.90;;;;;;5071727;28;20068;-73
2022/12/17 17:16:35;;;;;;;85.07;35.53;;;-1.30;99.90;;;;;;5071567;28;20087;-73
2022/12/17 17:19:01;;;;;;;85.53;36.45;;;-1.30;99.90;;;;;;5071653;28;20106;-74
2022/12/17 17:21:39;;;;;;;86.13;35.92;;;-1.30;99.90;;;;;;5072075;28;20036;-73
2022/12/17 17:24:11;;;;;;;87.63;36.30;;;-1.40;99.90;;;;;;5075802;28;20051;-73
2022/12/17 17:26:38;;;;;;;94.90;38.03;;;-1.40;99.90;;;;;;5058983;28;20082;-73
2022/12/17 17:29:04;;;;;;;95.15;38.13;;;-1.30;99.90;;;;;;5075862;28;20065;-73
2022/12/17 17:31:31;;;;;;;91.78;35.85;;;-1.30;99.90;;;;;;5059881;28;20028;-75
2022/12/17 17:33:56;;;;;;;92.30;36.55;;;-1.30;99.90;;;;;;5076185;28;20076;-75
2022/12/17 17:36:24;;;;;;;86.45;36.67;;;-1.30;99.90;;;;;;5075788;28;20055;-74
2022/12/17 17:38:54;;;;;;;93.45;37.85;;;-1.30;99.90;;;;;;5058926;28;20097;-73
2022/12/17 17:41:23;;;;;;;87.35;35.55;;;-1.30;99.90;;;;;;5076311;28;20040;-71
2022/12/17 17:43:53;;;;;;;88.97;36.33;;;-1.40;99.90;;;;;;5075376;28;20044;-71
2022/12/17 17:46:19;;;;;;;79.78;35.22;;;-1.40;99.90;;;;;;5075238;28;20036;-72
2022/12/17 17:48:46;;;;;;;83.15;34.63;;;-1.40;99.90;;;;;;5058380;28;20047;-71
2022/12/17 17:51:17;;;;;;;84.35;34.65;;;-1.40;99.90;;;;;;5075411;28;20124;-71
2022/12/17 17:53:45;;;;;;;87.50;36.72;;;-1.40;99.90;;;;;;5075404;28;20036;-71
2022/12/17 17:56:14;;;;;;;85.57;36.45;;;-1.40;99.90;;;;;;5075006;28;20130;-71
2022/12/17 17:58:52;;;;;;;85.80;35.97;;;-1.40;99.90;;;;;;5075307;28;20048;-70
2022/12/17 18:01:24;;;;;;;87.20;36.13;;;-1.40;99.90;;;;;;5075010;28;20048;-70
2022/12/17 18:03:51;;;;;;;83.90;36.13;;;-1.40;99.90;;;;;;5075226;28;20119;-71
2022/12/17 18:06:17;;;;;;;85.15;37.17;;;-1.40;99.90;;;;;;5074815;28;20040;-71
2022/12/17 18:08:43;;;;;;;84.80;35.50;;;-1.50;99.90;;;;;;5074781;28;20101;-71
2022/12/17 18:11:13;;;;;;;83.63;37.78;;;-1.50;99.90;;;;;;5074851;28;20072;-71
2022/12/17 18:16:40;;;;;;;84.93;37.42;;;-1.60;99.90;;;;;;5067877;28;20036;-72
2022/12/17 18:19:10;;;;;;;91.55;37.95;;;-1.50;99.90;;;;;;5075620;28;20079;-71
2022/12/17 18:21:37;;;;;;;91.65;38.30;;;-1.60;99.90;;;;;;5076003;28;20568;-71
2022/12/17 18:24:14;;;;;;;95.10;39.22;;;-1.50;99.90;;;;;;5076285;28;20041;-71
2022/12/17 18:26:42;;;;;;;94.72;38.83;;;-1.50;99.90;;;;;;5075917;28;20093;-71
2022/12/17 18:29:09;;;;;;;93.00;38.92;;;-1.60;99.90;;;;;;5076529;28;20048;-71
2022/12/17 18:31:35;;;;;;;92.40;39.10;;;-1.50;99.90;;;;;;5076033;28;20123;-71
2022/12/17 18:34:02;;;;;;;85.07;38.65;;;-1.50;99.90;;;;;;5075218;28;20178;-71
2022/12/17 18:36:32;;;;;;;95.38;40.60;;;-1.50;99.90;;;;;;5076172;28;20044;-71
2022/12/17 18:39:10;;;;;;;92.00;40.92;;;-1.50;99.90;;;;;;5076760;28;20047;-71
2022/12/17 18:44:20;;;;;;;92.78;40.03;;;-1.50;99.90;;;;;;5075794;28;20516;-71
2022/12/17 18:46:46;;;;;;;88.65;39.90;;;-1.50;99.90;;;;;;5075446;28;20040;-71
2022/12/17 18:49:13;;;;;;;93.65;42.60;;;-1.50;99.90;;;;;;5075871;28;20047;-71
2022/12/17 18:51:41;;;;;;;84.53;38.88;;;-1.50;99.90;;;;;;5076186;28;20149;-71
2022/12/17 18:54:12;;;;;;;73.53;36.10;;;-1.50;99.90;;;;;;5075708;28;20033;-70
2022/12/17 18:56:37;;;;;;;72.80;37.13;;;-1.50;99.90;;;;;;5059200;28;20045;-70
2022/12/17 18:59:04;;;;;;;79.70;38.90;;;-1.60;99.90;;;;;;5075541;28;20146;-71
2022/12/17 19:01:32;;;;;;;83.18;39.05;;;-1.70;99.90;;;;;;5075767;28;20044;-70
2022/12/17 19:04:06;;;;;;;78.53;38.53;;;-1.70;99.90;;;;;;5075793;28;20036;-70
2022/12/17 19:06:32;;;;;;;;;;;-1.70;99.90;;;;;;5075860;28;20044;-71
2022/12/17 19:08:58;;;;;;;77.22;37.63;;;-1.80;99.90;;;;;;5075469;28;19965;-71
2022/12/17 19:11:24;;;;;;;77.32;38.47;;;-1.90;99.90;;;;;;5075590;28;20039;-71
2022/12/17 19:13:50;;;;;;;73.57;37.53;;;-1.80;99.90;;;;;;5075409;28;20510;-71
2022/12/17 19:16:24;;;;;;;78.65;39.38;;;-1.80;99.90;;;;;;5075453;28;20054;-71
2022/12/17 19:18:56;;;;;;;76.50;38.42;;;-1.80;99.90;;;;;;5075359;28;20047;-71
2022/12/17 19:21:23;;;;;;;75.25;40.28;;;-1.80;99.90;;;;;;5075379;28;20129;-70
2022/12/17 19:23:53;;;;;;;75.55;38.55;;;-1.80;99.90;;;;;;5075528;28;20048;-71
2022/12/17 19:26:20;;;;;;;77.85;39.72;;;-1.80;99.90;;;;;;5075159;28;20064;-70
2022/12/17 19:28:48;;;;;;;80.50;40.90;;;-1.80;99.90;;;;;;5074982;28;20527;-70
2022/12/17 19:31:16;;;;;;;76.18;39.25;;;-1.80;99.90;;;;;;5075205;28;20040;-70
2022/12/17 19:33:41;;;;;;;75.78;39.72;;;-1.80;99.90;;;;;;5075223;28;20501;-70
2022/12/17 19:36:11;;;;;;;75.07;38.90;;;-1.70;99.90;;;;;;5074700;28;20072;-70
2022/12/17 19:38:36;;;;;;;75.85;40.67;;;-1.70;99.90;;;;;;5075076;28;20037;-70
2022/12/17 19:41:16;;;;;;;75.55;40.63;;;-1.70;99.90;;;;;;5057953;28;20055;-70
2022/12/17 19:43:43;;;;;;;80.82;40.70;;;-1.70;99.90;;;;;;5074643;28;20037;-70
2022/12/17 19:46:17;;;;;;;83.68;44.08;;;-1.70;99.90;;;;;;5074498;28;20102;-71
2022/12/17 19:48:44;;;;;;;93.03;43.88;;;-1.70;99.90;;;;;;5058121;28;20040;-70
2022/12/17 19:51:12;;;;;;;90.18;45.75;;;-1.70;99.90;;;;;;5058034;28;20036;-70
2022/12/17 19:53:39;;;;;;;87.50;44.88;;;-1.70;99.90;;;;;;5074712;28;20440;-70
2022/12/17 19:56:11;;;;;;;82.80;44.70;;;-1.70;99.90;;;;;;5074880;28;20063;-70
2022/12/17 19:58:39;;;;;;;82.22;44.35;;;-1.70;99.90;;;;;;5058066;28;20059;-70
2022/12/17 20:01:10;;;;;;;82.65;43.65;;;-1.70;99.90;;;;;;5074683;28;20041;-71
2022/12/17 20:03:37;;;;;;;84.43;43.30;;;-1.70;99.90;;;;;;5074877;28;20037;-70
2022/12/17 20:06:03;;;;;;;83.40;43.58;;;-1.80;99.90;;;;;;5074247;28;20115;-70
2022/12/17 20:08:30;;;;;;;89.95;45.92;;;-1.80;99.90;;;;;;5074523;28;20044;-71
2022/12/17 20:10:56;;;;;;;91.93;44.35;;;-1.80;99.90;;;;;;5074352;28;20139;-70
2022/12/17 20:13:22;;;;;;;92.55;44.85;;;-1.80;99.90;;;;;;5074460;28;20501;-70
2022/12/17 20:15:47;;;;;;;90.70;44.67;;;-1.80;99.90;;;;;;5074427;28;20029;-71
2022/12/17 20:18:13;;;;;;;82.28;42.20;;;-1.80;99.90;;;;;;5057261;28;20043;-71
2022/12/17 20:20:38;;;;;;;82.72;44.33;;;-1.80;99.90;;;;;;5074299;28;20045;-70
2022/12/17 20:23:04;;;;;;;86.82;44.00;;;-1.80;99.90;;;;;;5073727;28;20436;-71
2022/12/17 20:25:29;;;;;;;95.07;45.40;;;-1.90;99.90;;;;;;5074143;28;20037;-71
2022/12/17 20:27:55;;;;;;;80.97;41.67;;;-1.90;99.90;;;;;;5074150;28;20542;-70
2022/12/17 20:30:24;;;;;;;86.78;42.33;;;-1.90;99.90;;;;;;5073846;28;20045;-71
2022/12/17 20:32:52;;;;;;;87.13;43.15;;;-1.90;99.90;;;;;;5073726;28;20040;-71
2022/12/17 20:35:19;;;;;;;82.72;42.72;;;-1.90;99.90;;;;;;5073840;28;20032;-70
2022/12/17 20:37:44;;;;;;;83.75;41.83;;;-1.90;99.90;;;;;;5073802;28;20051;-70
2022/12/17 20:40:10;;;;;;;85.88;42.80;;;-1.90;99.90;;;;;;5057226;28;20044;-70
2022/12/17 20:42:36;;;;;;;85.88;41.75;;;-1.90;99.90;;;;;;5073909;28;20044;-71
2022/12/17 20:45:01;;;;;;;95.85;44.22;;;-2.00;99.90;;;;;;5073793;28;20043;-71
2022/12/17 20:47:27;;;;;;;90.35;44.20;;;-1.90;99.90;;;;;;5073712;28;20382;-71
2022/12/17 20:49:53;;;;;;;85.75;42.92;;;-1.90;99.90;;;;;;5073395;28;20044;-71
2022/12/17 20:52:18;;;;;;;90.85;43.75;;;-1.90;99.90;;;;;;5073548;28;20028;-70
2022/12/17 20:54:44;;;;;;;85.38;41.08;;;-1.90;99.90;;;;;;5073567;28;20036;-70
2022/12/17 20:57:10;;;;;;;90.28;41.67;;;-1.90;99.90;;;;;;5055960;28;20072;-70
2022/12/17 20:59:35;;;;;;;86.22;40.03;;;-1.90;99.90;;;;;;5074610;28;20047;-74
2022/12/17 21:02:01;;;;;;;90.63;41.55;;;-1.90;99.90;;;;;;5073834;28;20079;-73
2022/12/17 21:04:26;;;;;;;81.93;40.33;;;-1.90;99.90;;;;;;5073308;28;20051;-73
2022/12/17 21:06:52;;;;;;;89.65;42.00;;;-2.00;99.90;;;;;;5073808;28;20052;-73
2022/12/17 21:09:19;;;;;;;80.88;39.67;;;-1.90;99.90;;;;;;5073673;28;20045;-73
2022/12/17 21:11:45;;;;;;;89.85;41.25;;;-2.00;99.90;;;;;;5073547;28;20040;-73
2022/12/17 21:14:14;;;;;;;91.22;41.00;;;-2.00;99.90;;;;;;5073330;28;20072;-73
2022/12/17 21:16:42;;;;;;;96.35;42.38;;;-2.00;99.90;;;;;;5073547;28;20116;-73
2022/12/17 21:19:10;;;;;;;95.03;41.40;;;-2.10;99.90;;;;;;5073867;28;20101;-73
2022/12/17 21:21:37;;;;;;;102.28;43.00;;;-2.10;99.90;;;;;;5073594;28;20094;-74
2022/12/17 21:24:03;;;;;;;96.93;41.72;;;-2.10;99.90;;;;;;5073167;28;20051;-73
2022/12/17 21:26:31;;;;;;;89.50;39.95;;;-2.10;99.90;;;;;;5073409;28;20037;-73
2022/12/17 21:28:57;;;;;;;100.00;42.50;;;-2.10;99.90;;;;;;5072843;28;20076;-73
2022/12/17 21:31:32;;;;;;;82.82;39.72;;;-2.20;99.90;;;;;;5073014;28;20051;-73
2022/12/17 21:34:00;;;;;;;90.60;40.50;;;-2.20;99.90;;;;;;5073344;28;20037;-73
2022/12/17 21:36:28;;;;;;;101.60;42.83;;;-2.20;99.90;;;;;;5056470;28;20029;-74
2022/12/17 21:38:54;;;;;;;95.72;41.65;;;-2.20;99.90;;;;;;5073385;28;20032;-74
2022/12/17 21:41:27;;;;;;;98.18;41.03;;;-2.20;99.90;;;;;;5072982;28;20485;-74
2022/12/17 21:43:57;;;;;;;108.15;43.55;;;-2.20;99.90;;;;;;5073409;28;20044;-74
2022/12/17 21:46:25;;;;;;;92.05;41.38;;;-2.20;99.90;;;;;;5056624;28;20033;-74
2022/12/17 21:48:52;;;;;;;95.30;41.58;;;-2.20;99.90;;;;;;5073171;28;20090;-73
2022/12/17 21:51:18;;;;;;;102.25;42.67;;;-2.10;99.90;;;;;;5056480;28;20040;-73
2022/12/17 21:53:45;;;;;;;100.78;41.97;;;-2.10;99.90;;;;;;5072707;28;20051;-74
2022/12/17 21:56:13;;;;;;;90.82;39.88;;;-2.10;99.90;;;;;;5073310;28;20047;-73
2022/12/17 21:58:39;;;;;;;100.40;43.65;;;-2.10;99.90;;;;;;5073358;28;20032;-73
2022/12/17 22:01:23;;;;;;;106.78;42.40;;;-2.10;99.90;;;;;;5073340;28;20123;-73
2022/12/17 22:03:51;;;;;;;96.07;41.80;;;-2.10;99.90;;;;;;5073042;28;20037;-73
2022/12/17 22:06:19;;;;;;;104.03;40.97;;;-2.20;99.90;;;;;;5073097;28;20036;-73
2022/12/17 22:08:46;;;;;;;87.07;37.65;;;-2.20;99.90;;;;;;5075245;28;20508;-73
2022/12/17 22:11:18;;;;;;;87.50;37.22;;;-2.20;99.90;;;;;;5076358;28;20041;-73
2022/12/17 22:14:05;;;;;;;80.10;36.83;;;-2.20;99.90;;;;;;5076446;28;20040;-73
2022/12/17 22:16:33;;;;;;;83.05;37.33;;;-2.30;99.90;;;;;;5076424;28;20044;-71
2022/12/17 22:19:01;;;;;;;82.15;36.40;;;-2.30;99.90;;;;;;5060102;28;20153;-71
2022/12/17 22:21:27;;;;;;;85.72;38.75;;;-2.30;99.90;;;;;;5076221;28;20044;-71
2022/12/17 22:23:52;;;;;;;78.20;36.70;;;-2.30;99.90;;;;;;5076388;28;20040;-71
2022/12/17 22:26:19;;;;;;;82.60;37.60;;;-2.30;99.90;;;;;;5059356;28;20037;-71
2022/12/17 22:28:48;;;;;;;93.15;38.58;;;-2.30;99.90;;;;;;5076181;28;20044;-71
2022/12/17 22:34:02;;;;;;;88.05;38.80;;;-2.30;99.90;;;;;;5076749;28;20041;-73
2022/12/17 22:36:29;;;;;;;87.35;36.25;;;-2.30;99.90;;;;;;5076473;28;20045;-73
2022/12/17 22:38:57;;;;;;;90.05;37.25;;;-2.40;99.90;;;;;;5076589;28;20083;-73
2022/12/17 22:44:06;;;;;;;96.15;39.90;;;-2.50;99.90;;;;;;5076666;28;20048;-73
2022/12/17 22:46:32;;;;;;;103.05;41.10;;;-2.50;99.90;;;;;;5075610;28;20523;-73
2022/12/17 22:48:58;;;;;;;102.30;38.90;;;-2.50;99.90;;;;;;5074224;28;20512;-70
2022/12/17 22:51:25;;;;;;;110.88;41.30;;;-2.50;99.90;;;;;;5074172;28;20048;-70
2022/12/17 22:53:51;;;;;;;92.05;37.88;;;-2.50;99.90;;;;;;5074147;28;20040;-70
2022/12/17 22:56:18;;;;;;;87.90;36.83;;;-2.50;99.90;;;;;;5074263;28;20079;-69
2022/12/17 22:58:44;;;;;;;87.57;35.83;;;-2.60;99.90;;;;;;5074048;28;20055;-70
2022/12/17 23:01:09;;;;;;;87.00;36.42;;;-2.50;99.90;;;;;;5074197;28;20037;-70
2022/12/17 23:03:35;;;;;;;87.78;38.60;;;-2.50;99.90;;;;;;5073969;28;20052;-70
2022/12/17 23:06:12;;;;;;;97.35;38.70;;;-2.50;99.90;;;;;;5073810;28;20039;-70
2022/12/17 23:08:38;;;;;;;110.80;40.83;;;-2.40;99.90;;;;;;5073870;28;20115;-70
2022/12/17 23:11:25;;;;;;;124.38;40.72;;;-2.30;99.90;;;;;;5074021;28;20120;-70
2022/12/17 23:13:52;;;;;;;108.82;39.05;;;-2.30;99.90;;;;;;5073866;28;20123;-70
2022/12/17 23:16:18;;;;;;;109.18;41.70;;;-2.30;99.90;;;;;;5073827;28;20378;-70
2022/12/17 23:18:45;;;;;;;95.70;37.60;;;-2.30;99.90;;;;;;5056894;28;20037;-70
2022/12/17 23:21:13;;;;;;;95.60;36.90;;;-2.30;99.90;;;;;;5073288;28;20076;-70
2022/12/17 23:23:39;;;;;;;87.13;36.58;;;-2.40;99.90;;;;;;5075074;28;20032;-70
2022/12/17 23:26:22;;;;;;;97.85;35.80;;;-2.50;99.90;;;;;;5073394;28;20040;-70
2022/12/17 23:28:52;;;;;;;88.28;36.30;;;-2.50;99.90;;;;;;5073411;28;20082;-70
2022/12/17 23:31:19;;;;;;;111.70;40.58;;;-2.50;99.90;;;;;;5073420;28;20040;-70
2022/12/17 23:33:45;;;;;;;96.10;38.67;;;-2.40;99.90;;;;;;5073320;28;20075;-70
2022/12/17 23:36:14;;;;;;;106.82;39.78;;;-2.40;99.90;;;;;;5073199;28;20047;-70
2022/12/17 23:38:40;;;;;;;97.85;38.60;;;-2.40;99.90;;;;;;5073229;28;20060;-70
2022/12/17 23:41:08;;;;;;;98.88;36.67;;;-2.40;99.90;;;;;;5073163;28;20489;-70
2022/12/17 23:43:34;;;;;;;91.57;35.65;;;-2.40;99.90;;;;;;5073480;28;20055;-70
2022/12/17 23:46:00;;;;;;;93.85;35.40;;;-2.40;99.90;;;;;;5073275;28;20044;-70
2022/12/17 23:48:31;;;;;;;80.60;34.45;;;-2.50;99.90;;;;;;5072944;28;20040;-70
2022/12/17 23:50:59;;;;;;;84.32;34.75;;;-2.50;99.90;;;;;;5072971;28;20498;-70
2022/12/17 23:53:26;;;;;;;94.38;36.60;;;-2.70;99.90;;;;;;5056175;28;20044;-70
2022/12/17 23:55:51;;;;;;;90.72;34.53;;;-2.70;99.90;;;;;;5072840;28;20040;-70
2022/12/17 23:58:17;;;;;;;84.30;34.55;;;-2.80;99.90;;;;;;5072834;28;20066;-70
